sensor_id;sensor_type;location;lat;lon;timestamp;P1;durP1;ratioP1;P2;durP2;ratioP2
62056;SDS011;48016;50.284;18.860;2023-06-10T00:01:36;19.80;;;17.40;;
62056;SDS011;48016;50.284;18.860;2023-06-10T00:04:02;21.00;;;18.10;;
62056;SDS011;48016;50.284;18.860;2023-06-10T00:06:28;20.40;;;17.90;;
62056;SDS011;48016;50.284;18.860;2023-06-10T00:09:04;20.60;;;18.40;;
62056;SDS011;48016;50.284;18.860;2023-06-10T00:11:31;23.00;;;18.80;;
62056;SDS011;48016;50.284;18.860;2023-06-10T00:13:58;22.20;;;18.90;;
62056;SDS011;48016;50.284;18.860;2023-06-10T00:16:24;20.90;;;18.60;;
62056;SDS011;48016;50.284;18.860;2023-06-10T00:18:50;22.70;;;18.90;;
62056;SDS011;48016;50.284;18.860;2023-06-10T00:21:17;19.90;;;17.60;;
62056;SDS011;48016;50.284;18.860;2023-06-10T00:23:44;20.60;;;17.90;;
62056;SDS011;48016;50.284;18.860;2023-06-10T00:26:10;20.30;;;18.10;;
62056;SDS011;48016;50.284;18.860;2023-06-10T00:28:36;19.30;;;17.20;;
62056;SDS011;48016;50.284;18.860;2023-06-10T00:31:02;20.30;;;17.10;;
62056;SDS011;48016;50.284;18.860;2023-06-10T00:33:29;18.20;;;16.30;;
62056;SDS011;48016;50.284;18.860;2023-06-10T00:35:56;18.50;;;16.50;;
62056;SDS011;48016;50.284;18.860;2023-06-10T00:38:22;20.50;;;16.30;;
62056;SDS011;48016;50.284;18.860;2023-06-10T00:40:47;17.70;;;15.80;;
62056;SDS011;48016;50.284;18.860;2023-06-10T00:43:13;16.50;;;14.80;;
62056;SDS011;48016;50.284;18.860;2023-06-10T00:45:39;18.20;;;16.30;;
62056;SDS011;48016;50.284;18.860;2023-06-10T00:48:05;17.20;;;15.30;;
62056;SDS011;48016;50.284;18.860;2023-06-10T00:50:31;17.10;;;15.30;;
62056;SDS011;48016;50.284;18.860;2023-06-10T00:52:58;18.60;;;15.90;;
62056;SDS011;48016;50.284;18.860;2023-06-10T00:55:25;18.10;;;15.70;;
62056;SDS011;48016;50.284;18.860;2023-06-10T00:57:52;18.40;;;15.30;;
62056;SDS011;48016;50.284;18.860;2023-06-10T01:00:19;18.30;;;16.30;;
62056;SDS011;48016;50.284;18.860;2023-06-10T01:02:45;19.30;;;16.00;;
62056;SDS011;48016;50.284;18.860;2023-06-10T01:05:11;17.70;;;15.50;;
62056;SDS011;48016;50.284;18.860;2023-06-10T01:07:50;17.50;;;15.60;;
62056;SDS011;48016;50.284;18.860;2023-06-10T01:13:03;18.80;;;16.00;;
62056;SDS011;48016;50.284;18.860;2023-06-10T01:15:34;17.40;;;15.50;;
62056;SDS011;48016;50.284;18.860;2023-06-10T01:18:01;18.10;;;16.00;;
62056;SDS011;48016;50.284;18.860;2023-06-10T01:20:29;16.80;;;15.10;;
62056;SDS011;48016;50.284;18.860;2023-06-10T01:22:58;17.40;;;15.50;;
62056;SDS011;48016;50.284;18.860;2023-06-10T01:25:24;17.70;;;15.60;;
62056;SDS011;48016;50.284;18.860;2023-06-10T01:30:27;17.80;;;15.90;;
62056;SDS011;48016;50.284;18.860;2023-06-10T01:32:59;17.80;;;15.90;;
62056;SDS011;48016;50.284;18.860;2023-06-10T01:35:26;19.70;;;15.50;;
62056;SDS011;48016;50.284;18.860;2023-06-10T01:37:54;18.10;;;16.10;;
62056;SDS011;48016;50.284;18.860;2023-06-10T01:40:24;18.70;;;15.60;;
62056;SDS011;48016;50.284;18.860;2023-06-10T01:42:51;17.40;;;15.20;;
62056;SDS011;48016;50.284;18.860;2023-06-10T01:45:17;16.50;;;14.50;;
62056;SDS011;48016;50.284;18.860;2023-06-10T01:47:43;17.90;;;15.60;;
62056;SDS011;48016;50.284;18.860;2023-06-10T01:50:09;16.90;;;15.20;;
62056;SDS011;48016;50.284;18.860;2023-06-10T01:52:35;17.20;;;15.50;;
62056;SDS011;48016;50.284;18.860;2023-06-10T01:55:02;19.40;;;15.20;;
62056;SDS011;48016;50.284;18.860;2023-06-10T01:57:29;17.20;;;15.40;;
62056;SDS011;48016;50.284;18.860;2023-06-10T01:59:55;18.40;;;15.80;;
62056;SDS011;48016;50.284;18.860;2023-06-10T02:02:21;18.60;;;16.10;;
62056;SDS011;48016;50.284;18.860;2023-06-10T02:04:47;18.90;;;16.30;;
62056;SDS011;48016;50.284;18.860;2023-06-10T02:07:13;19.00;;;16.90;;
62056;SDS011;48016;50.284;18.860;2023-06-10T02:09:39;17.10;;;15.30;;
62056;SDS011;48016;50.284;18.860;2023-06-10T02:12:05;18.30;;;16.40;;
62056;SDS011;48016;50.284;18.860;2023-06-10T02:14:32;17.40;;;15.70;;
62056;SDS011;48016;50.284;18.860;2023-06-10T02:16:59;17.80;;;15.90;;
62056;SDS011;48016;50.284;18.860;2023-06-10T02:19:26;18.30;;;15.50;;
62056;SDS011;48016;50.284;18.860;2023-06-10T02:21:52;18.60;;;15.90;;
62056;SDS011;48016;50.284;18.860;2023-06-10T02:24:18;17.60;;;15.70;;
62056;SDS011;48016;50.284;18.860;2023-06-10T02:26:44;18.20;;;16.20;;
62056;SDS011;48016;50.284;18.860;2023-06-10T02:29:11;18.70;;;16.60;;
62056;SDS011;48016;50.284;18.860;2023-06-10T02:31:37;19.20;;;16.90;;
62056;SDS011;48016;50.284;18.860;2023-06-10T02:34:05;19.00;;;17.00;;
62056;SDS011;48016;50.284;18.860;2023-06-10T02:36:31;19.40;;;16.70;;
62056;SDS011;48016;50.284;18.860;2023-06-10T02:38:57;18.20;;;16.30;;
62056;SDS011;48016;50.284;18.860;2023-06-10T02:41:22;18.40;;;16.50;;
62056;SDS011;48016;50.284;18.860;2023-06-10T02:43:50;19.10;;;16.70;;
62056;SDS011;48016;50.284;18.860;2023-06-10T02:46:16;19.50;;;17.50;;
62056;SDS011;48016;50.284;18.860;2023-06-10T02:48:42;21.10;;;18.90;;
62056;SDS011;48016;50.284;18.860;2023-06-10T02:51:11;20.70;;;18.50;;
62056;SDS011;48016;50.284;18.860;2023-06-10T02:53:37;22.80;;;20.30;;
62056;SDS011;48016;50.284;18.860;2023-06-10T02:56:03;23.80;;;21.20;;
62056;SDS011;48016;50.284;18.860;2023-06-10T02:58:29;28.30;;;23.50;;
62056;SDS011;48016;50.284;18.860;2023-06-10T03:00:56;28.50;;;25.50;;
62056;SDS011;48016;50.284;18.860;2023-06-10T03:03:22;28.80;;;24.40;;
62056;SDS011;48016;50.284;18.860;2023-06-10T03:05:48;27.90;;;25.00;;
62056;SDS011;48016;50.284;18.860;2023-06-10T03:08:14;30.60;;;26.80;;
62056;SDS011;48016;50.284;18.860;2023-06-10T03:10:40;27.00;;;23.40;;
62056;SDS011;48016;50.284;18.860;2023-06-10T03:13:06;26.20;;;23.40;;
62056;SDS011;48016;50.284;18.860;2023-06-10T03:15:31;26.20;;;22.90;;
62056;SDS011;48016;50.284;18.860;2023-06-10T03:18:01;27.30;;;24.10;;
62056;SDS011;48016;50.284;18.860;2023-06-10T03:20:27;23.40;;;20.90;;
62056;SDS011;48016;50.284;18.860;2023-06-10T03:22:54;23.40;;;20.20;;
62056;SDS011;48016;50.284;18.860;2023-06-10T03:25:20;22.70;;;19.20;;
62056;SDS011;48016;50.284;18.860;2023-06-10T03:27:46;21.30;;;19.00;;
62056;SDS011;48016;50.284;18.860;2023-06-10T03:30:12;21.70;;;19.20;;
62056;SDS011;48016;50.284;18.860;2023-06-10T03:32:39;21.10;;;18.90;;
62056;SDS011;48016;50.284;18.860;2023-06-10T03:35:06;16.80;;;15.00;;
62056;SDS011;48016;50.284;18.860;2023-06-10T03:37:33;21.00;;;18.90;;
62056;SDS011;48016;50.284;18.860;2023-06-10T03:39:59;19.10;;;17.20;;
62056;SDS011;48016;50.284;18.860;2023-06-10T03:42:24;21.80;;;18.00;;
62056;SDS011;48016;50.284;18.860;2023-06-10T03:44:50;20.00;;;18.00;;
62056;SDS011;48016;50.284;18.860;2023-06-10T03:47:16;20.40;;;18.30;;
62056;SDS011;48016;50.284;18.860;2023-06-10T03:49:42;21.80;;;18.80;;
62056;SDS011;48016;50.284;18.860;2023-06-10T03:52:08;19.20;;;17.10;;
62056;SDS011;48016;50.284;18.860;2023-06-10T03:54:34;18.10;;;16.10;;
62056;SDS011;48016;50.284;18.860;2023-06-10T03:57:00;21.30;;;17.60;;
62056;SDS011;48016;50.284;18.860;2023-06-10T03:59:26;18.90;;;17.10;;
62056;SDS011;48016;50.284;18.860;2023-06-10T04:01:52;18.90;;;16.90;;
62056;SDS011;48016;50.284;18.860;2023-06-10T04:04:18;18.10;;;16.30;;
62056;SDS011;48016;50.284;18.860;2023-06-10T04:06:44;17.80;;;16.10;;
62056;SDS011;48016;50.284;18.860;2023-06-10T04:09:11;21.30;;;18.50;;
62056;SDS011;48016;50.284;18.860;2023-06-10T04:11:37;21.20;;;18.90;;
62056;SDS011;48016;50.284;18.860;2023-06-10T04:14:02;20.40;;;18.30;;
62056;SDS011;48016;50.284;18.860;2023-06-10T04:16:29;18.40;;;16.50;;
62056;SDS011;48016;50.284;18.860;2023-06-10T04:18:54;17.40;;;14.10;;
62056;SDS011;48016;50.284;18.860;2023-06-10T04:21:21;18.50;;;16.30;;
62056;SDS011;48016;50.284;18.860;2023-06-10T04:23:47;15.00;;;13.50;;
62056;SDS011;48016;50.284;18.860;2023-06-10T04:26:14;15.90;;;13.80;;
62056;SDS011;48016;50.284;18.860;2023-06-10T04:28:40;14.80;;;12.80;;
62056;SDS011;48016;50.284;18.860;2023-06-10T04:31:05;14.30;;;12.90;;
62056;SDS011;48016;50.284;18.860;2023-06-10T04:33:31;15.40;;;13.80;;
62056;SDS011;48016;50.284;18.860;2023-06-10T04:35:58;15.80;;;13.60;;
62056;SDS011;48016;50.284;18.860;2023-06-10T04:38:24;14.70;;;13.20;;
62056;SDS011;48016;50.284;18.860;2023-06-10T04:40:50;13.80;;;12.20;;
62056;SDS011;48016;50.284;18.860;2023-06-10T04:43:15;15.30;;;13.30;;
62056;SDS011;48016;50.284;18.860;2023-06-10T04:45:41;15.00;;;13.40;;
62056;SDS011;48016;50.284;18.860;2023-06-10T04:48:10;14.90;;;13.20;;
62056;SDS011;48016;50.284;18.860;2023-06-10T04:50:37;14.50;;;12.80;;
62056;SDS011;48016;50.284;18.860;2023-06-10T04:53:03;14.30;;;12.50;;
62056;SDS011;48016;50.284;18.860;2023-06-10T04:55:28;13.90;;;12.40;;
62056;SDS011;48016;50.284;18.860;2023-06-10T04:57:55;16.10;;;13.60;;
62056;SDS011;48016;50.284;18.860;2023-06-10T05:00:21;12.60;;;11.40;;
62056;SDS011;48016;50.284;18.860;2023-06-10T05:02:46;15.00;;;12.60;;
62056;SDS011;48016;50.284;18.860;2023-06-10T05:05:16;17.70;;;12.60;;
62056;SDS011;48016;50.284;18.860;2023-06-10T05:07:42;13.80;;;12.40;;
62056;SDS011;48016;50.284;18.860;2023-06-10T05:10:08;15.40;;;12.30;;
62056;SDS011;48016;50.284;18.860;2023-06-10T05:12:35;16.30;;;12.40;;
62056;SDS011;48016;50.284;18.860;2023-06-10T05:15:01;13.30;;;11.90;;
62056;SDS011;48016;50.284;18.860;2023-06-10T05:17:27;14.00;;;12.40;;
62056;SDS011;48016;50.284;18.860;2023-06-10T05:19:53;14.70;;;13.30;;
62056;SDS011;48016;50.284;18.860;2023-06-10T05:22:19;13.20;;;10.70;;
62056;SDS011;48016;50.284;18.860;2023-06-10T05:24:45;12.40;;;11.10;;
62056;SDS011;48016;50.284;18.860;2023-06-10T05:27:11;14.10;;;12.20;;
62056;SDS011;48016;50.284;18.860;2023-06-10T05:29:37;15.40;;;12.10;;
62056;SDS011;48016;50.284;18.860;2023-06-10T05:32:03;13.80;;;11.70;;
62056;SDS011;48016;50.284;18.860;2023-06-10T05:34:29;14.20;;;12.70;;
62056;SDS011;48016;50.284;18.860;2023-06-10T05:36:56;16.50;;;13.60;;
62056;SDS011;48016;50.284;18.860;2023-06-10T05:39:22;14.40;;;12.80;;
62056;SDS011;48016;50.284;18.860;2023-06-10T05:41:49;11.70;;;10.60;;
62056;SDS011;48016;50.284;18.860;2023-06-10T05:44:14;14.20;;;12.40;;
62056;SDS011;48016;50.284;18.860;2023-06-10T05:46:40;11.80;;;10.60;;
62056;SDS011;48016;50.284;18.860;2023-06-10T05:49:07;13.50;;;12.10;;
62056;SDS011;48016;50.284;18.860;2023-06-10T05:51:33;12.70;;;10.80;;
62056;SDS011;48016;50.284;18.860;2023-06-10T05:53:58;13.40;;;11.80;;
62056;SDS011;48016;50.284;18.860;2023-06-10T05:56:24;14.20;;;12.80;;
62056;SDS011;48016;50.284;18.860;2023-06-10T05:58:51;13.10;;;11.80;;
62056;SDS011;48016;50.284;18.860;2023-06-10T06:01:17;13.00;;;11.40;;
62056;SDS011;48016;50.284;18.860;2023-06-10T06:03:43;14.60;;;12.70;;
62056;SDS011;48016;50.284;18.860;2023-06-10T06:06:08;13.50;;;11.40;;
62056;SDS011;48016;50.284;18.860;2023-06-10T06:08:34;14.30;;;12.90;;
62056;SDS011;48016;50.284;18.860;2023-06-10T06:11:00;14.90;;;12.60;;
62056;SDS011;48016;50.284;18.860;2023-06-10T06:13:26;13.70;;;12.40;;
62056;SDS011;48016;50.284;18.860;2023-06-10T06:15:52;14.00;;;12.60;;
62056;SDS011;48016;50.284;18.860;2023-06-10T06:18:18;15.10;;;12.70;;
62056;SDS011;48016;50.284;18.860;2023-06-10T06:20:44;12.80;;;11.40;;
62056;SDS011;48016;50.284;18.860;2023-06-10T06:23:10;15.10;;;13.60;;
62056;SDS011;48016;50.284;18.860;2023-06-10T06:25:36;12.90;;;11.60;;
62056;SDS011;48016;50.284;18.860;2023-06-10T06:28:07;13.70;;;12.20;;
62056;SDS011;48016;50.284;18.860;2023-06-10T06:30:36;12.80;;;11.20;;
62056;SDS011;48016;50.284;18.860;2023-06-10T06:33:02;13.90;;;12.50;;
62056;SDS011;48016;50.284;18.860;2023-06-10T06:35:30;13.20;;;11.80;;
62056;SDS011;48016;50.284;18.860;2023-06-10T06:37:57;12.70;;;11.40;;
62056;SDS011;48016;50.284;18.860;2023-06-10T06:40:24;12.50;;;11.20;;
62056;SDS011;48016;50.284;18.860;2023-06-10T06:42:50;13.70;;;12.30;;
62056;SDS011;48016;50.284;18.860;2023-06-10T06:45:16;12.90;;;11.50;;
62056;SDS011;48016;50.284;18.860;2023-06-10T06:47:42;13.20;;;11.80;;
62056;SDS011;48016;50.284;18.860;2023-06-10T06:50:09;13.50;;;11.80;;
62056;SDS011;48016;50.284;18.860;2023-06-10T06:52:35;14.50;;;12.90;;
62056;SDS011;48016;50.284;18.860;2023-06-10T06:55:01;15.10;;;13.50;;
62056;SDS011;48016;50.284;18.860;2023-06-10T06:57:27;14.90;;;13.30;;
62056;SDS011;48016;50.284;18.860;2023-06-10T06:59:53;14.60;;;13.00;;
62056;SDS011;48016;50.284;18.860;2023-06-10T07:02:19;13.70;;;12.20;;
62056;SDS011;48016;50.284;18.860;2023-06-10T07:04:45;11.80;;;10.20;;
62056;SDS011;48016;50.284;18.860;2023-06-10T07:07:12;11.40;;;10.20;;
62056;SDS011;48016;50.284;18.860;2023-06-10T07:09:38;11.90;;;9.90;;
62056;SDS011;48016;50.284;18.860;2023-06-10T07:12:04;17.20;;;10.50;;
62056;SDS011;48016;50.284;18.860;2023-06-10T07:14:31;10.30;;;9.20;;
62056;SDS011;48016;50.284;18.860;2023-06-10T07:16:57;12.20;;;9.90;;
62056;SDS011;48016;50.284;18.860;2023-06-10T07:19:22;11.10;;;10.00;;
62056;SDS011;48016;50.284;18.860;2023-06-10T07:21:48;12.40;;;10.20;;
62056;SDS011;48016;50.284;18.860;2023-06-10T07:24:14;10.20;;;9.20;;
62056;SDS011;48016;50.284;18.860;2023-06-10T07:26:40;11.00;;;9.60;;
62056;SDS011;48016;50.284;18.860;2023-06-10T07:29:06;12.20;;;9.60;;
62056;SDS011;48016;50.284;18.860;2023-06-10T07:31:32;11.40;;;9.80;;
62056;SDS011;48016;50.284;18.860;2023-06-10T07:33:58;13.50;;;9.90;;
62056;SDS011;48016;50.284;18.860;2023-06-10T07:36:24;12.20;;;9.80;;
62056;SDS011;48016;50.284;18.860;2023-06-10T07:38:53;15.50;;;12.00;;
62056;SDS011;48016;50.284;18.860;2023-06-10T07:41:19;14.60;;;11.60;;
62056;SDS011;48016;50.284;18.860;2023-06-10T07:43:45;14.40;;;11.80;;
62056;SDS011;48016;50.284;18.860;2023-06-10T07:46:11;12.00;;;10.40;;
62056;SDS011;48016;50.284;18.860;2023-06-10T07:48:37;12.40;;;11.10;;
62056;SDS011;48016;50.284;18.860;2023-06-10T07:51:03;13.50;;;12.20;;
62056;SDS011;48016;50.284;18.860;2023-06-10T07:53:29;14.10;;;12.70;;
62056;SDS011;48016;50.284;18.860;2023-06-10T07:55:55;13.90;;;12.60;;
62056;SDS011;48016;50.284;18.860;2023-06-10T07:58:21;11.60;;;10.50;;
62056;SDS011;48016;50.284;18.860;2023-06-10T08:00:47;13.40;;;11.70;;
62056;SDS011;48016;50.284;18.860;2023-06-10T08:03:13;14.80;;;12.20;;
62056;SDS011;48016;50.284;18.860;2023-06-10T08:05:39;12.00;;;10.80;;
62056;SDS011;48016;50.284;18.860;2023-06-10T08:08:06;11.20;;;10.00;;
62056;SDS011;48016;50.284;18.860;2023-06-10T08:10:32;11.50;;;10.30;;
62056;SDS011;48016;50.284;18.860;2023-06-10T08:12:58;11.70;;;9.10;;
62056;SDS011;48016;50.284;18.860;2023-06-10T08:15:24;10.80;;;9.70;;
62056;SDS011;48016;50.284;18.860;2023-06-10T08:17:50;12.20;;;10.00;;
62056;SDS011;48016;50.284;18.860;2023-06-10T08:20:17;10.30;;;8.70;;
62056;SDS011;48016;50.284;18.860;2023-06-10T08:22:43;8.40;;;7.20;;
62056;SDS011;48016;50.284;18.860;2023-06-10T08:25:09;11.00;;;9.50;;
62056;SDS011;48016;50.284;18.860;2023-06-10T08:27:35;10.70;;;8.80;;
62056;SDS011;48016;50.284;18.860;2023-06-10T08:30:01;10.90;;;9.10;;
62056;SDS011;48016;50.284;18.860;2023-06-10T08:32:27;10.30;;;9.20;;
62056;SDS011;48016;50.284;18.860;2023-06-10T08:34:55;12.00;;;9.30;;
62056;SDS011;48016;50.284;18.860;2023-06-10T08:37:21;10.90;;;9.80;;
62056;SDS011;48016;50.284;18.860;2023-06-10T08:39:47;10.50;;;8.10;;
62056;SDS011;48016;50.284;18.860;2023-06-10T08:42:17;10.20;;;9.20;;
62056;SDS011;48016;50.284;18.860;2023-06-10T08:44:50;11.10;;;8.80;;
62056;SDS011;48016;50.284;18.860;2023-06-10T08:47:20;9.60;;;8.40;;
62056;SDS011;48016;50.284;18.860;2023-06-10T08:49:48;11.70;;;9.90;;
62056;SDS011;48016;50.284;18.860;2023-06-10T08:52:18;11.70;;;10.30;;
62056;SDS011;48016;50.284;18.860;2023-06-10T08:54:52;10.70;;;9.50;;
62056;SDS011;48016;50.284;18.860;2023-06-10T08:57:20;11.40;;;10.00;;
62056;SDS011;48016;50.284;18.860;2023-06-10T08:59:47;12.60;;;10.60;;
62056;SDS011;48016;50.284;18.860;2023-06-10T09:02:14;13.40;;;10.90;;
62056;SDS011;48016;50.284;18.860;2023-06-10T09:07:09;11.90;;;9.50;;
62056;SDS011;48016;50.284;18.860;2023-06-10T09:12:02;10.00;;;8.60;;
62056;SDS011;48016;50.284;18.860;2023-06-10T09:14:29;9.90;;;8.20;;
62056;SDS011;48016;50.284;18.860;2023-06-10T09:16:55;9.30;;;8.40;;
62056;SDS011;48016;50.284;18.860;2023-06-10T09:19:23;9.60;;;8.70;;
62056;SDS011;48016;50.284;18.860;2023-06-10T09:21:50;9.60;;;8.70;;
62056;SDS011;48016;50.284;18.860;2023-06-10T09:24:16;9.90;;;8.60;;
62056;SDS011;48016;50.284;18.860;2023-06-10T09:26:43;9.50;;;8.60;;
62056;SDS011;48016;50.284;18.860;2023-06-10T09:31:40;11.70;;;9.50;;
62056;SDS011;48016;50.284;18.860;2023-06-10T09:34:09;10.80;;;9.20;;
62056;SDS011;48016;50.284;18.860;2023-06-10T09:36:38;10.60;;;9.20;;
62056;SDS011;48016;50.284;18.860;2023-06-10T09:39:05;11.00;;;9.10;;
62056;SDS011;48016;50.284;18.860;2023-06-10T09:41:41;10.10;;;9.00;;
62056;SDS011;48016;50.284;18.860;2023-06-10T09:44:17;12.10;;;9.00;;
62056;SDS011;48016;50.284;18.860;2023-06-10T09:46:46;10.30;;;9.10;;
62056;SDS011;48016;50.284;18.860;2023-06-10T09:49:12;9.50;;;8.30;;
62056;SDS011;48016;50.284;18.860;2023-06-10T09:51:54;9.10;;;8.10;;
62056;SDS011;48016;50.284;18.860;2023-06-10T09:54:21;9.00;;;7.70;;
62056;SDS011;48016;50.284;18.860;2023-06-10T09:56:48;10.50;;;7.10;;
62056;SDS011;48016;50.284;18.860;2023-06-10T09:59:30;8.10;;;7.40;;
62056;SDS011;48016;50.284;18.860;2023-06-10T10:01:57;8.30;;;7.60;;
62056;SDS011;48016;50.284;18.860;2023-06-10T10:04:24;7.90;;;7.10;;
62056;SDS011;48016;50.284;18.860;2023-06-10T10:06:50;7.10;;;6.30;;
62056;SDS011;48016;50.284;18.860;2023-06-10T10:09:16;7.30;;;6.50;;
62056;SDS011;48016;50.284;18.860;2023-06-10T10:11:43;7.60;;;6.50;;
62056;SDS011;48016;50.284;18.860;2023-06-10T10:16:37;8.00;;;6.20;;
62056;SDS011;48016;50.284;18.860;2023-06-10T10:19:20;7.00;;;5.80;;
62056;SDS011;48016;50.284;18.860;2023-06-10T10:21:54;5.50;;;5.00;;
62056;SDS011;48016;50.284;18.860;2023-06-10T10:24:39;5.00;;;4.40;;
62056;SDS011;48016;50.284;18.860;2023-06-10T10:27:14;5.40;;;4.90;;
62056;SDS011;48016;50.284;18.860;2023-06-10T10:29:46;7.50;;;4.90;;
62056;SDS011;48016;50.284;18.860;2023-06-10T10:32:13;5.50;;;4.90;;
62056;SDS011;48016;50.284;18.860;2023-06-10T10:37:13;5.00;;;4.40;;
62056;SDS011;48016;50.284;18.860;2023-06-10T10:39:39;7.00;;;5.30;;
62056;SDS011;48016;50.284;18.860;2023-06-10T10:42:05;5.80;;;4.90;;
62056;SDS011;48016;50.284;18.860;2023-06-10T10:44:37;8.10;;;5.20;;
62056;SDS011;48016;50.284;18.860;2023-06-10T10:47:03;7.00;;;5.40;;
62056;SDS011;48016;50.284;18.860;2023-06-10T10:49:33;6.10;;;5.40;;
62056;SDS011;48016;50.284;18.860;2023-06-10T10:52:01;6.60;;;5.70;;
62056;SDS011;48016;50.284;18.860;2023-06-10T10:54:28;6.30;;;5.60;;
62056;SDS011;48016;50.284;18.860;2023-06-10T10:57:18;7.20;;;5.90;;
62056;SDS011;48016;50.284;18.860;2023-06-10T11:04:58;6.30;;;5.30;;
62056;SDS011;48016;50.284;18.860;2023-06-10T11:07:26;6.50;;;5.30;;
62056;SDS011;48016;50.284;18.860;2023-06-10T11:12:54;6.30;;;5.10;;
62056;SDS011;48016;50.284;18.860;2023-06-10T11:20:43;6.00;;;4.80;;
62056;SDS011;48016;50.284;18.860;2023-06-10T11:26:00;5.50;;;4.80;;
62056;SDS011;48016;50.284;18.860;2023-06-10T11:28:34;5.20;;;4.70;;
62056;SDS011;48016;50.284;18.860;2023-06-10T11:31:00;6.20;;;5.60;;
62056;SDS011;48016;50.284;18.860;2023-06-10T11:33:26;5.70;;;5.20;;
62056;SDS011;48016;50.284;18.860;2023-06-10T11:36:23;7.30;;;5.70;;
62056;SDS011;48016;50.284;18.860;2023-06-10T11:38:52;6.20;;;5.20;;
62056;SDS011;48016;50.284;18.860;2023-06-10T11:41:20;6.70;;;5.90;;
62056;SDS011;48016;50.284;18.860;2023-06-10T11:43:46;6.30;;;5.50;;
62056;SDS011;48016;50.284;18.860;2023-06-10T11:46:13;6.60;;;5.80;;
62056;SDS011;48016;50.284;18.860;2023-06-10T11:48:48;7.80;;;5.60;;
62056;SDS011;48016;50.284;18.860;2023-06-10T11:51:15;6.00;;;5.40;;
62056;SDS011;48016;50.284;18.860;2023-06-10T11:53:43;6.90;;;5.50;;
62056;SDS011;48016;50.284;18.860;2023-06-10T11:56:10;6.10;;;4.90;;
62056;SDS011;48016;50.284;18.860;2023-06-10T11:58:36;5.90;;;5.30;;
62056;SDS011;48016;50.284;18.860;2023-06-10T12:01:02;7.40;;;5.70;;
62056;SDS011;48016;50.284;18.860;2023-06-10T12:03:35;6.30;;;5.30;;
62056;SDS011;48016;50.284;18.860;2023-06-10T12:06:05;5.90;;;5.30;;
62056;SDS011;48016;50.284;18.860;2023-06-10T12:08:33;7.10;;;5.80;;
62056;SDS011;48016;50.284;18.860;2023-06-10T12:13:26;7.70;;;6.30;;
62056;SDS011;48016;50.284;18.860;2023-06-10T12:15:53;7.20;;;6.10;;
62056;SDS011;48016;50.284;18.860;2023-06-10T12:18:19;7.70;;;6.10;;
62056;SDS011;48016;50.284;18.860;2023-06-10T12:20:46;8.00;;;6.40;;
62056;SDS011;48016;50.284;18.860;2023-06-10T12:23:14;6.90;;;6.20;;
62056;SDS011;48016;50.284;18.860;2023-06-10T12:30:46;7.50;;;6.70;;
62056;SDS011;48016;50.284;18.860;2023-06-10T12:33:18;7.30;;;6.30;;
62056;SDS011;48016;50.284;18.860;2023-06-10T12:35:48;8.00;;;6.30;;
62056;SDS011;48016;50.284;18.860;2023-06-10T12:38:22;7.00;;;6.40;;
62056;SDS011;48016;50.284;18.860;2023-06-10T12:40:49;6.80;;;6.20;;
62056;SDS011;48016;50.284;18.860;2023-06-10T12:43:19;7.40;;;6.70;;
62056;SDS011;48016;50.284;18.860;2023-06-10T12:45:46;7.50;;;6.10;;
62056;SDS011;48016;50.284;18.860;2023-06-10T12:50:46;7.30;;;6.60;;
62056;SDS011;48016;50.284;18.860;2023-06-10T12:53:16;6.70;;;6.00;;
62056;SDS011;48016;50.284;18.860;2023-06-10T12:55:42;7.80;;;6.80;;
62056;SDS011;48016;50.284;18.860;2023-06-10T12:58:11;7.00;;;6.30;;
62056;SDS011;48016;50.284;18.860;2023-06-10T13:00:37;9.00;;;6.40;;
62056;SDS011;48016;50.284;18.860;2023-06-10T13:03:03;7.20;;;6.50;;
62056;SDS011;48016;50.284;18.860;2023-06-10T13:05:31;7.00;;;6.20;;
62056;SDS011;48016;50.284;18.860;2023-06-10T13:07:58;6.80;;;6.10;;
62056;SDS011;48016;50.284;18.860;2023-06-10T13:10:24;6.20;;;5.60;;
62056;SDS011;48016;50.284;18.860;2023-06-10T13:12:51;6.70;;;6.00;;
62056;SDS011;48016;50.284;18.860;2023-06-10T13:15:20;6.70;;;5.90;;
62056;SDS011;48016;50.284;18.860;2023-06-10T13:17:46;7.30;;;6.60;;
62056;SDS011;48016;50.284;18.860;2023-06-10T13:20:14;8.10;;;6.50;;
62056;SDS011;48016;50.284;18.860;2023-06-10T13:22:44;7.30;;;6.50;;
62056;SDS011;48016;50.284;18.860;2023-06-10T13:25:10;7.20;;;6.50;;
62056;SDS011;48016;50.284;18.860;2023-06-10T13:27:36;8.10;;;7.30;;
62056;SDS011;48016;50.284;18.860;2023-06-10T13:30:07;7.40;;;6.70;;
62056;SDS011;48016;50.284;18.860;2023-06-10T13:32:35;7.40;;;6.40;;
62056;SDS011;48016;50.284;18.860;2023-06-10T13:35:01;9.40;;;8.40;;
62056;SDS011;48016;50.284;18.860;2023-06-10T13:37:28;7.60;;;6.80;;
62056;SDS011;48016;50.284;18.860;2023-06-10T13:39:54;7.80;;;6.90;;
62056;SDS011;48016;50.284;18.860;2023-06-10T13:42:20;8.00;;;7.20;;
62056;SDS011;48016;50.284;18.860;2023-06-10T13:44:47;7.90;;;7.10;;
62056;SDS011;48016;50.284;18.860;2023-06-10T13:47:14;8.30;;;7.40;;
62056;SDS011;48016;50.284;18.860;2023-06-10T13:49:40;7.60;;;6.80;;
62056;SDS011;48016;50.284;18.860;2023-06-10T13:52:07;8.40;;;7.20;;
62056;SDS011;48016;50.284;18.860;2023-06-10T13:54:33;8.40;;;6.40;;
62056;SDS011;48016;50.284;18.860;2023-06-10T13:57:01;7.80;;;7.00;;
62056;SDS011;48016;50.284;18.860;2023-06-10T13:59:28;7.20;;;5.90;;
62056;SDS011;48016;50.284;18.860;2023-06-10T14:01:54;7.30;;;6.40;;
62056;SDS011;48016;50.284;18.860;2023-06-10T14:04:21;7.40;;;6.70;;
62056;SDS011;48016;50.284;18.860;2023-06-10T14:06:47;7.70;;;6.90;;
62056;SDS011;48016;50.284;18.860;2023-06-10T14:09:13;7.70;;;6.40;;
62056;SDS011;48016;50.284;18.860;2023-06-10T14:11:40;8.40;;;6.90;;
62056;SDS011;48016;50.284;18.860;2023-06-10T14:14:06;7.70;;;6.90;;
62056;SDS011;48016;50.284;18.860;2023-06-10T14:16:32;8.60;;;7.20;;
62056;SDS011;48016;50.284;18.860;2023-06-10T14:18:58;6.70;;;6.10;;
62056;SDS011;48016;50.284;18.860;2023-06-10T14:21:24;7.40;;;5.70;;
62056;SDS011;48016;50.284;18.860;2023-06-10T14:23:50;7.80;;;5.60;;
62056;SDS011;48016;50.284;18.860;2023-06-10T14:26:18;7.00;;;5.90;;
62056;SDS011;48016;50.284;18.860;2023-06-10T14:28:44;5.80;;;5.00;;
62056;SDS011;48016;50.284;18.860;2023-06-10T14:31:10;5.80;;;5.20;;
62056;SDS011;48016;50.284;18.860;2023-06-10T14:33:36;5.50;;;4.40;;
62056;SDS011;48016;50.284;18.860;2023-06-10T14:36:02;4.80;;;4.00;;
62056;SDS011;48016;50.284;18.860;2023-06-10T14:38:28;6.60;;;3.80;;
62056;SDS011;48016;50.284;18.860;2023-06-10T14:40:54;4.50;;;3.80;;
62056;SDS011;48016;50.284;18.860;2023-06-10T14:43:20;4.50;;;3.40;;
62056;SDS011;48016;50.284;18.860;2023-06-10T14:45:46;5.70;;;4.00;;
62056;SDS011;48016;50.284;18.860;2023-06-10T14:48:12;5.40;;;3.80;;
62056;SDS011;48016;50.284;18.860;2023-06-10T14:50:38;5.70;;;3.50;;
62056;SDS011;48016;50.284;18.860;2023-06-10T14:53:06;5.60;;;3.80;;
62056;SDS011;48016;50.284;18.860;2023-06-10T14:55:31;4.60;;;3.60;;
62056;SDS011;48016;50.284;18.860;2023-06-10T14:57:57;7.50;;;4.30;;
62056;SDS011;48016;50.284;18.860;2023-06-10T15:00:23;5.50;;;4.60;;
62056;SDS011;48016;50.284;18.860;2023-06-10T15:02:51;7.90;;;4.90;;